Quick Links (Output Below):   Max & Min Temps   /   Climate Reports   /   Zone Forecasts
River Forecasts   /   Forestry Forecasts   /   Aviation Forecasts   /   Radars   /   Features

Terminal Aerodrome Forecast (Fort Smith)

Pick a Site:
Arkadelphia | El Dorado | Fayetteville | Fort Smith | Harrison | Highfill | Hot Springs | Jonesboro
Little Rock | Monticello | Mountain Home | Pine Bluff | Texarkana
 Forecast 

KFSM 272325Z 2800/2824 VRB05KT P6SM VCTS SCT050CB BKN100
     FM280100 08003KT P6SM BKN250
     FM281500 VRB03KT P6SM SCT100 BKN250
     FM282000 27005KT P6SM SCT040 SCT250=


 Latest METARs (Observations) 
How to Decode METARs
00Z KFSM 272353Z 22005KT 10SM CLR 28/22 A2990 RMK AO2 SLP117 T02830222
         10328 20283 55004 $
         
***** Today's Observations (Above) *****


23Z KFSM 272253Z 19004KT 10SM CLR 29/23 A2989 RMK AO2 SLP116 T02940228
         $
         
22Z KFSM 272153Z 13006KT 10SM CLR 30/23 A2990 RMK AO2 SLP120 T03000233
         $
         
21Z KFSM 272053Z 15004KT 10SM CLR 31/22 A2991 RMK AO2 SLP122 T03060222
         56010
         
20Z KFSM 271953Z 12007KT 10SM CLR 29/22 A2991 RMK AO2 SLP123
         T02890222
         
19Z KFSM 271853Z 12005KT 10SM SCT034 BKN046 30/23 A2993 RMK AO2 LTG
         DSNT NE AND S AND SW SLP127 T03000233
         
18Z KFSM 271753Z VRB04KT 10SM FEW033 32/22 A2994 RMK AO2 SLP131
         T03220222 10322 20250 58006
         
17Z KFSM 271653Z 33004KT 10SM SCT031 BKN050 BKN110 31/22 A2997 RMK AO2
         SLP143 T03060222
         
16Z KFSM 271553Z 00000KT 10SM FEW032 SCT060 30/22 A2997 RMK AO2 SLP142
         T03000222
         
15Z KFSM 271453Z VRB03KT 10SM BKN090 BKN110 28/22 A2996 RMK AO2 SLP138
         T02830222 56001
         
***** Yesterday's Observations (Above) *****


Back to Main Page
http://www.srh.noaa.gov/lzk/qfcst.php

USA.gov is the U.S. government's official web portal to all federal, state and local government web resources and services.